createdAt,value
2023-08-06T00:00:28.710Z,1.30
2023-08-06T00:01:28.707Z,1.50
2023-08-06T00:02:28.746Z,1.30
2023-08-06T00:03:28.756Z,1.60
2023-08-06T00:04:28.672Z,1.40
2023-08-06T00:05:28.638Z,1.50
2023-08-06T00:06:28.626Z,1.50
2023-08-06T00:07:28.611Z,1.60
2023-08-06T00:08:28.607Z,1.50
2023-08-06T00:09:28.630Z,1.60
2023-08-06T00:10:28.581Z,1.40
2023-08-06T00:11:28.571Z,1.60
2023-08-06T00:12:28.561Z,1.50
2023-08-06T00:13:28.545Z,1.40
2023-08-06T00:14:28.541Z,1.30
2023-08-06T00:15:28.552Z,1.60
2023-08-06T00:16:28.533Z,1.60
2023-08-06T00:17:28.549Z,1.80
2023-08-06T00:18:28.557Z,1.10
2023-08-06T00:19:28.505Z,1.80
2023-08-06T00:20:28.485Z,1.60
2023-08-06T00:21:28.487Z,1.30
2023-08-06T00:22:28.452Z,1.70
2023-08-06T00:23:28.449Z,1.30
2023-08-06T00:24:28.425Z,1.50
2023-08-06T00:25:28.418Z,1.30
2023-08-06T00:26:28.427Z,1.40
2023-08-06T00:27:28.410Z,1.40
2023-08-06T00:28:28.392Z,1.50
2023-08-06T00:29:28.362Z,1.80
2023-08-06T00:30:28.356Z,1.40
2023-08-06T00:31:28.345Z,1.80
2023-08-06T00:32:28.406Z,1.50
2023-08-06T00:33:28.352Z,1.80
2023-08-06T00:34:28.306Z,1.70
2023-08-06T00:35:28.296Z,1.70
2023-08-06T00:36:28.288Z,1.70
2023-08-06T00:37:28.281Z,1.70
2023-08-06T00:38:28.289Z,1.70
2023-08-06T00:39:28.256Z,1.70
2023-08-06T00:40:28.239Z,1.60
2023-08-06T00:41:28.230Z,1.80
2023-08-06T00:42:28.223Z,1.40
2023-08-06T00:43:28.258Z,1.70
2023-08-06T00:44:28.201Z,1.60
2023-08-06T00:45:28.191Z,1.90
2023-08-06T00:46:28.220Z,2.00
2023-08-06T00:47:28.254Z,1.70
2023-08-06T00:48:28.175Z,1.70
2023-08-06T00:49:28.164Z,1.50
2023-08-06T00:50:28.137Z,1.60
2023-08-06T00:51:28.120Z,1.60
2023-08-06T00:52:28.135Z,1.80
2023-08-06T00:53:28.125Z,1.70
2023-08-06T00:54:28.182Z,2.00
2023-08-06T00:55:28.135Z,1.60
2023-08-06T00:56:28.099Z,1.60
2023-08-06T00:57:28.155Z,2.00
2023-08-06T00:58:28.053Z,1.70
2023-08-06T00:59:28.078Z,1.70
2023-08-06T01:00:28.134Z,1.80
2023-08-06T01:01:28.030Z,1.60
2023-08-06T01:02:28.073Z,1.50
2023-08-06T01:03:27.986Z,1.90
2023-08-06T01:04:27.976Z,2.20
2023-08-06T01:05:27.987Z,2.20
2023-08-06T01:06:27.983Z,1.70
2023-08-06T01:07:27.945Z,1.90
2023-08-06T01:08:27.936Z,1.50
2023-08-06T01:09:27.924Z,2.10
2023-08-06T01:10:27.913Z,1.80
2023-08-06T01:11:27.941Z,1.80
2023-08-06T01:12:27.899Z,1.60
2023-08-06T01:13:27.893Z,1.60
2023-08-06T01:14:27.871Z,1.80
2023-08-06T01:15:27.856Z,1.70
2023-08-06T01:16:27.890Z,2.30
2023-08-06T01:17:27.971Z,1.70
2023-08-06T01:18:27.827Z,2.40
2023-08-06T01:19:27.809Z,1.80
2023-08-06T01:20:27.803Z,1.80
2023-08-06T01:21:27.811Z,1.80
2023-08-06T01:22:27.785Z,1.80
2023-08-06T01:23:27.787Z,2.10
2023-08-06T01:24:27.767Z,2.10
2023-08-06T01:25:27.742Z,1.90
2023-08-06T01:26:27.740Z,2.00
2023-08-06T01:27:27.720Z,2.00
2023-08-06T01:28:27.738Z,2.10
2023-08-06T01:29:27.707Z,1.60
2023-08-06T01:30:27.695Z,2.20
2023-08-06T01:31:27.674Z,2.10
2023-08-06T01:32:27.679Z,1.70
2023-08-06T01:33:27.676Z,2.00
2023-08-06T01:34:27.665Z,2.00
2023-08-06T01:35:27.630Z,1.60
2023-08-06T01:36:27.625Z,2.00
2023-08-06T01:37:27.612Z,1.80
2023-08-06T01:38:27.603Z,1.60
2023-08-06T01:39:27.621Z,1.90
2023-08-06T01:40:27.588Z,1.60
2023-08-06T01:41:27.583Z,1.60
2023-08-06T01:42:27.553Z,1.80
2023-08-06T01:43:27.544Z,1.90
2023-08-06T01:44:27.531Z,2.10
2023-08-06T01:45:27.539Z,2.00
2023-08-06T01:46:27.553Z,2.10
2023-08-06T01:47:27.515Z,1.90
2023-08-06T01:48:27.490Z,2.10
2023-08-06T01:49:27.495Z,2.10
2023-08-06T01:50:27.466Z,1.80
2023-08-06T01:51:27.451Z,1.90
2023-08-06T01:52:27.446Z,2.00
2023-08-06T01:53:27.426Z,2.10
2023-08-06T01:54:27.427Z,2.20
2023-08-06T01:55:27.441Z,2.30
2023-08-06T01:56:27.460Z,2.30
2023-08-06T01:57:27.386Z,2.10
2023-08-06T01:58:27.373Z,1.90
2023-08-06T01:59:27.361Z,2.10
2023-08-06T02:00:27.351Z,2.10
2023-08-06T02:01:27.400Z,1.90
2023-08-06T02:02:27.347Z,2.20
2023-08-06T02:03:27.354Z,1.60
2023-08-06T02:04:27.422Z,1.80
2023-08-06T02:05:27.293Z,2.00
2023-08-06T02:06:27.331Z,2.00
2023-08-06T02:07:27.275Z,2.30
2023-08-06T02:08:27.259Z,2.00
2023-08-06T02:09:27.267Z,2.10
2023-08-06T02:10:27.259Z,2.00
2023-08-06T02:11:27.238Z,2.00
2023-08-06T02:12:27.231Z,2.40
2023-08-06T02:13:27.213Z,1.90
2023-08-06T02:14:27.190Z,2.50
2023-08-06T02:15:27.215Z,2.20
2023-08-06T02:16:27.208Z,2.40
2023-08-06T02:17:27.175Z,1.80
2023-08-06T02:18:27.173Z,2.00
2023-08-06T02:19:27.144Z,1.90
2023-08-06T02:20:27.129Z,2.10
2023-08-06T02:21:27.134Z,1.90
2023-08-06T02:22:27.104Z,2.10
2023-08-06T02:23:27.205Z,1.90
2023-08-06T02:24:27.082Z,2.00
2023-08-06T02:25:27.090Z,2.10
2023-08-06T02:26:27.093Z,2.40
2023-08-06T02:27:27.051Z,2.40
2023-08-06T02:28:27.036Z,2.10
2023-08-06T02:29:27.051Z,1.80
2023-08-06T02:30:27.028Z,2.10
2023-08-06T02:31:27.031Z,2.20
2023-08-06T02:32:27.021Z,2.00
2023-08-06T02:33:26.996Z,1.90
2023-08-06T02:34:26.994Z,2.10
2023-08-06T02:35:27.000Z,2.10
2023-08-06T02:36:26.946Z,2.20
2023-08-06T02:37:26.939Z,2.10
2023-08-06T02:38:26.926Z,2.30
2023-08-06T02:39:26.957Z,1.80
2023-08-06T02:40:26.908Z,2.10
2023-08-06T02:41:26.914Z,2.00
2023-08-06T02:42:26.880Z,2.10
2023-08-06T02:43:26.873Z,2.10
2023-08-06T02:44:26.858Z,2.00
2023-08-06T02:45:26.894Z,2.10
2023-08-06T02:46:26.832Z,2.10
2023-08-06T02:47:26.859Z,2.10
2023-08-06T02:48:26.814Z,2.60
2023-08-06T02:49:26.809Z,1.90
2023-08-06T02:50:26.791Z,2.40
2023-08-06T02:51:26.809Z,2.00
2023-08-06T02:52:26.778Z,2.30
2023-08-06T02:53:26.775Z,2.20
2023-08-06T02:54:26.753Z,1.80
2023-08-06T02:55:26.747Z,2.00
2023-08-06T02:56:26.728Z,2.10
2023-08-06T02:57:26.741Z,2.50
2023-08-06T02:58:26.714Z,2.10
2023-08-06T02:59:26.690Z,2.20
2023-08-06T03:00:26.680Z,2.10
2023-08-06T03:01:26.699Z,2.10
2023-08-06T03:02:26.718Z,2.20
2023-08-06T03:03:26.652Z,2.50
2023-08-06T03:04:26.674Z,1.90
2023-08-06T03:05:26.633Z,2.20
2023-08-06T03:06:26.617Z,2.00
2023-08-06T03:07:26.615Z,2.30
2023-08-06T03:08:26.613Z,2.10
2023-08-06T03:09:26.593Z,2.40
2023-08-06T03:10:26.576Z,2.20
2023-08-06T03:11:26.565Z,2.10
2023-08-06T03:12:26.552Z,2.30
2023-08-06T03:13:26.541Z,2.10
2023-08-06T03:14:26.577Z,2.20
2023-08-06T03:15:26.519Z,2.00
2023-08-06T03:16:26.539Z,2.30
2023-08-06T03:17:26.507Z,2.20
2023-08-06T03:18:26.495Z,2.20
2023-08-06T03:19:26.476Z,2.30
2023-08-06T03:20:26.496Z,2.10
2023-08-06T03:21:26.460Z,2.20
2023-08-06T03:22:26.444Z,2.00
2023-08-06T03:23:26.428Z,1.90
2023-08-06T03:24:26.435Z,1.50
2023-08-06T03:25:26.430Z,1.90
2023-08-06T03:26:26.396Z,1.90
2023-08-06T03:27:26.385Z,2.30
2023-08-06T03:28:26.369Z,2.20
2023-08-06T03:29:26.462Z,2.30
2023-08-06T03:30:26.377Z,2.60
2023-08-06T03:31:26.377Z,2.20
2023-08-06T03:32:26.335Z,2.00
2023-08-06T03:33:26.321Z,1.80
2023-08-06T03:34:26.301Z,2.10
2023-08-06T03:35:26.295Z,1.90
2023-08-06T03:36:26.318Z,2.00
2023-08-06T03:37:26.274Z,2.00
2023-08-06T03:38:26.261Z,2.40
2023-08-06T03:39:26.254Z,1.90
2023-08-06T03:40:26.237Z,1.90
2023-08-06T03:41:26.237Z,2.10
2023-08-06T03:42:26.235Z,2.40
2023-08-06T03:43:26.219Z,2.20
2023-08-06T03:44:26.191Z,2.00
2023-08-06T03:45:26.179Z,2.40
2023-08-06T03:46:26.203Z,2.20
2023-08-06T03:47:26.218Z,1.80
2023-08-06T03:48:26.146Z,1.90
2023-08-06T03:49:26.135Z,2.60
2023-08-06T03:50:26.137Z,2.40
2023-08-06T03:51:26.110Z,2.00
2023-08-06T03:52:26.141Z,2.20
2023-08-06T03:53:26.093Z,1.90
2023-08-06T03:54:26.091Z,2.10
2023-08-06T03:55:26.079Z,1.90
2023-08-06T03:56:26.057Z,2.30
2023-08-06T03:57:26.046Z,2.10
2023-08-06T03:58:26.059Z,2.20
2023-08-06T03:59:26.020Z,2.10
2023-08-06T04:00:26.014Z,2.30
2023-08-06T04:01:26.014Z,2.30
2023-08-06T04:02:26.006Z,2.20
2023-08-06T04:03:26.146Z,2.10
2023-08-06T04:04:25.976Z,2.40
2023-08-06T04:05:25.959Z,2.20
2023-08-06T04:06:25.951Z,2.10
2023-08-06T04:07:25.934Z,2.50
2023-08-06T04:08:25.965Z,2.30
2023-08-06T04:09:25.914Z,1.90
2023-08-06T04:10:25.903Z,2.10
2023-08-06T04:11:25.891Z,2.50
2023-08-06T04:12:25.883Z,2.30
2023-08-06T04:13:25.879Z,2.10
2023-08-06T04:14:25.883Z,2.20
2023-08-06T04:15:25.874Z,2.30
2023-08-06T04:16:25.912Z,2.00
2023-08-06T04:17:25.846Z,2.10
2023-08-06T04:18:26.573Z,2.30
2023-08-06T04:19:25.804Z,2.00
2023-08-06T04:20:25.795Z,2.00
2023-08-06T04:21:25.822Z,1.90
2023-08-06T04:22:25.767Z,2.10
2023-08-06T04:23:25.767Z,2.30
2023-08-06T04:24:25.749Z,2.50
2023-08-06T04:25:25.734Z,2.50
2023-08-06T04:26:25.745Z,2.20
2023-08-06T04:27:25.738Z,2.10
2023-08-06T04:28:25.711Z,1.90
2023-08-06T04:29:25.690Z,2.00
2023-08-06T04:30:25.688Z,2.30
2023-08-06T04:31:25.669Z,2.50
2023-08-06T04:32:25.667Z,2.10
2023-08-06T04:33:25.673Z,2.20
2023-08-06T04:34:25.648Z,2.50
2023-08-06T04:35:25.621Z,2.10
2023-08-06T04:36:25.637Z,2.00
2023-08-06T04:37:25.602Z,2.60
2023-08-06T04:38:25.622Z,2.40
2023-08-06T04:39:25.583Z,2.20
2023-08-06T04:40:25.595Z,2.20
2023-08-06T04:41:25.573Z,2.40
2023-08-06T04:42:25.544Z,2.20
2023-08-06T04:43:25.584Z,2.30
2023-08-06T04:44:25.528Z,2.00
2023-08-06T04:45:25.596Z,2.40
2023-08-06T04:46:25.557Z,2.10
2023-08-06T04:47:25.514Z,2.00
2023-08-06T04:48:25.478Z,2.30
2023-08-06T04:49:25.465Z,2.40
2023-08-06T04:50:25.463Z,2.20
2023-08-06T04:51:25.442Z,2.00
2023-08-06T04:52:25.456Z,2.30
2023-08-06T04:53:25.428Z,2.30
2023-08-06T04:54:25.409Z,2.20
2023-08-06T04:55:25.427Z,2.20
2023-08-06T04:56:25.394Z,1.90
2023-08-06T04:57:25.374Z,2.20
2023-08-06T04:58:25.411Z,2.50
2023-08-06T04:59:25.362Z,2.30
2023-08-06T05:00:25.340Z,2.60
2023-08-06T05:01:25.366Z,2.10
2023-08-06T05:02:25.358Z,2.40
2023-08-06T05:03:25.381Z,2.70
2023-08-06T05:04:25.327Z,2.30
2023-08-06T05:05:25.332Z,2.60
2023-08-06T05:06:25.279Z,2.40
2023-08-06T05:07:25.289Z,2.20
2023-08-06T05:08:25.263Z,2.00
2023-08-06T05:09:25.247Z,2.00
2023-08-06T05:10:25.293Z,2.40
2023-08-06T05:11:25.218Z,2.10
2023-08-06T05:12:25.224Z,2.20
2023-08-06T05:13:25.300Z,2.60
2023-08-06T05:14:25.195Z,2.30
2023-08-06T05:15:25.197Z,2.40
2023-08-06T05:16:25.177Z,2.00
2023-08-06T05:17:25.182Z,2.60
2023-08-06T05:18:25.175Z,1.90
2023-08-06T05:19:25.136Z,2.60
2023-08-06T05:20:25.139Z,2.30
2023-08-06T05:21:25.117Z,2.10
2023-08-06T05:22:25.131Z,2.00
2023-08-06T05:23:25.102Z,2.10
2023-08-06T05:24:25.079Z,1.90
2023-08-06T05:25:25.066Z,1.70
2023-08-06T05:26:25.061Z,2.30
2023-08-06T05:27:25.046Z,2.40
2023-08-06T05:28:25.066Z,2.20
2023-08-06T05:29:25.027Z,2.50
2023-08-06T05:30:25.013Z,1.90
2023-08-06T05:31:25.022Z,2.20
2023-08-06T05:32:25.051Z,2.00
2023-08-06T05:33:24.975Z,2.10
2023-08-06T05:34:24.968Z,2.00
2023-08-06T05:35:24.953Z,2.50
2023-08-06T05:36:24.946Z,2.00
2023-08-06T05:37:24.928Z,2.00
2023-08-06T05:38:24.944Z,2.30
2023-08-06T05:39:24.911Z,1.90
2023-08-06T05:40:24.896Z,2.30
2023-08-06T05:41:24.893Z,2.00
2023-08-06T05:42:24.877Z,2.10
2023-08-06T05:43:24.865Z,2.30
2023-08-06T05:44:24.875Z,2.00
2023-08-06T05:45:24.846Z,2.10
2023-08-06T05:46:24.846Z,2.10
2023-08-06T05:47:24.848Z,2.10
2023-08-06T05:48:24.817Z,2.20
2023-08-06T05:49:24.840Z,2.10
2023-08-06T05:50:24.789Z,2.30
2023-08-06T05:51:24.772Z,2.20
2023-08-06T05:52:24.766Z,2.20
2023-08-06T05:53:24.804Z,2.20
2023-08-06T05:54:24.755Z,2.10
2023-08-06T05:55:24.755Z,2.20
2023-08-06T05:56:24.741Z,2.30
2023-08-06T05:57:24.731Z,2.10
2023-08-06T05:58:24.737Z,2.10
2023-08-06T05:59:24.736Z,2.40
2023-08-06T06:00:24.673Z,2.40
2023-08-06T06:01:24.747Z,2.10
2023-08-06T06:02:24.728Z,2.00
2023-08-06T06:03:24.677Z,1.90
2023-08-06T06:04:24.627Z,2.00
2023-08-06T06:05:24.636Z,2.50
2023-08-06T06:06:24.629Z,2.20
2023-08-06T06:07:24.594Z,2.10
2023-08-06T06:08:24.586Z,2.60
2023-08-06T06:09:24.594Z,1.90
2023-08-06T06:10:24.567Z,2.20
2023-08-06T06:11:24.556Z,2.30
2023-08-06T06:12:24.536Z,2.10
2023-08-06T06:13:24.544Z,2.50
2023-08-06T06:14:24.522Z,2.10
2023-08-06T06:15:24.528Z,1.70
2023-08-06T06:16:24.561Z,2.10
2023-08-06T06:17:24.512Z,2.40
2023-08-06T06:18:24.483Z,2.10
2023-08-06T06:19:24.469Z,2.20
2023-08-06T06:20:24.477Z,2.00
2023-08-06T06:21:24.437Z,2.20
2023-08-06T06:22:24.463Z,2.00
2023-08-06T06:23:24.413Z,2.10
2023-08-06T06:24:24.407Z,2.00
2023-08-06T06:25:24.393Z,2.20
2023-08-06T06:26:24.389Z,2.00
2023-08-06T06:27:24.395Z,2.10
2023-08-06T06:28:24.388Z,2.10
2023-08-06T06:29:24.382Z,2.00
2023-08-06T06:30:24.335Z,2.20
2023-08-06T06:31:24.343Z,2.10
2023-08-06T06:32:24.336Z,2.30
2023-08-06T06:33:24.339Z,2.10
2023-08-06T06:34:24.302Z,2.20
2023-08-06T06:35:24.282Z,2.20
2023-08-06T06:36:24.273Z,2.00
2023-08-06T06:37:24.260Z,2.50
2023-08-06T06:38:24.248Z,2.00
2023-08-06T06:39:24.257Z,2.00
2023-08-06T06:40:24.248Z,2.20
2023-08-06T06:41:24.214Z,2.20
2023-08-06T06:42:24.205Z,2.10
2023-08-06T06:43:24.191Z,2.20
2023-08-06T06:44:24.196Z,2.20
2023-08-06T06:45:24.212Z,2.40
2023-08-06T06:46:24.188Z,2.20
2023-08-06T06:47:24.165Z,2.50
2023-08-06T06:48:24.132Z,1.90
2023-08-06T06:49:24.169Z,2.10
2023-08-06T06:50:24.112Z,2.50
2023-08-06T06:51:24.098Z,2.20
2023-08-06T06:52:24.116Z,1.90
2023-08-06T06:53:24.084Z,1.80
2023-08-06T06:54:24.092Z,2.00
2023-08-06T06:55:24.059Z,2.00
2023-08-06T06:56:24.058Z,2.10
2023-08-06T06:57:24.060Z,2.20
2023-08-06T06:58:24.026Z,1.80
2023-08-06T06:59:24.050Z,2.00
2023-08-06T07:00:24.007Z,2.10
2023-08-06T07:01:24.037Z,2.00
2023-08-06T07:02:23.996Z,2.00
2023-08-06T07:03:23.996Z,2.10
2023-08-06T07:04:23.978Z,2.10
2023-08-06T07:05:23.954Z,2.50
2023-08-06T07:06:23.936Z,2.00
2023-08-06T07:07:23.935Z,2.40
2023-08-06T07:08:23.918Z,2.00
2023-08-06T07:09:23.934Z,2.00
2023-08-06T07:10:23.889Z,1.80
2023-08-06T07:11:23.880Z,2.20
2023-08-06T07:12:23.874Z,2.00
2023-08-06T07:13:23.860Z,2.20
2023-08-06T07:14:23.870Z,2.20
2023-08-06T07:15:23.839Z,2.30
2023-08-06T07:16:23.848Z,2.10
2023-08-06T07:17:23.854Z,2.60
2023-08-06T07:18:23.797Z,2.20
2023-08-06T07:19:23.817Z,2.40
2023-08-06T07:20:23.784Z,2.20
2023-08-06T07:21:23.790Z,2.00
2023-08-06T07:22:23.753Z,2.00
2023-08-06T07:23:23.745Z,2.30
2023-08-06T07:24:23.763Z,2.10
2023-08-06T07:25:23.732Z,2.10
2023-08-06T07:26:23.716Z,1.80
2023-08-06T07:27:23.711Z,1.80
2023-08-06T07:28:23.685Z,1.50
2023-08-06T07:29:23.722Z,1.90
2023-08-06T07:30:23.700Z,2.00
2023-08-06T07:31:23.692Z,1.90
2023-08-06T07:32:23.673Z,1.90
2023-08-06T07:33:23.637Z,1.60
2023-08-06T07:34:23.624Z,1.80
2023-08-06T07:35:23.638Z,2.10
2023-08-06T07:36:23.657Z,2.40
2023-08-06T07:37:23.593Z,1.80
2023-08-06T07:38:23.580Z,1.80
2023-08-06T07:39:23.653Z,2.30
2023-08-06T07:40:23.574Z,1.90
2023-08-06T07:41:23.550Z,1.80
2023-08-06T07:42:23.537Z,1.80
2023-08-06T07:43:23.525Z,2.10
2023-08-06T07:44:23.528Z,1.80
2023-08-06T07:45:23.528Z,1.80
2023-08-06T07:46:23.542Z,1.70
2023-08-06T07:47:23.510Z,1.60
2023-08-06T07:48:23.474Z,1.80
2023-08-06T07:49:23.461Z,1.90
2023-08-06T07:50:23.469Z,1.80
2023-08-06T07:51:23.464Z,1.70
2023-08-06T07:52:23.440Z,1.70
2023-08-06T07:53:23.449Z,1.50
2023-08-06T07:54:23.401Z,1.50
2023-08-06T07:55:23.497Z,1.70
2023-08-06T07:56:23.404Z,1.70
2023-08-06T07:57:23.372Z,1.70
2023-08-06T07:58:23.355Z,1.50
2023-08-06T07:59:23.364Z,1.60
2023-08-06T08:00:23.369Z,1.30
2023-08-06T08:01:23.398Z,1.10
2023-08-06T08:02:23.346Z,1.20
2023-08-06T08:03:23.370Z,1.30
2023-08-06T08:04:23.328Z,1.50
2023-08-06T08:05:23.302Z,1.40
2023-08-06T08:06:23.268Z,1.30
2023-08-06T08:07:23.288Z,1.20
2023-08-06T08:08:23.247Z,1.40
2023-08-06T08:09:23.239Z,1.10
2023-08-06T08:10:23.282Z,1.10
2023-08-06T08:11:23.216Z,1.20
2023-08-06T08:12:23.219Z,1.10
2023-08-06T08:13:23.309Z,1.10
2023-08-06T08:14:23.178Z,1.00
2023-08-06T08:15:23.174Z,1.40
2023-08-06T08:16:23.225Z,1.20
2023-08-06T08:17:23.200Z,1.20
2023-08-06T08:18:24.466Z,1.30
2023-08-06T08:19:23.128Z,1.20
2023-08-06T08:20:23.116Z,1.30
2023-08-06T08:21:23.106Z,0.80
2023-08-06T08:22:23.088Z,1.20
2023-08-06T08:23:23.109Z,0.90
2023-08-06T08:24:23.069Z,1.40
2023-08-06T08:25:23.062Z,1.10
2023-08-06T08:26:23.057Z,1.10
2023-08-06T08:27:23.069Z,0.90
2023-08-06T08:28:23.029Z,1.20
2023-08-06T08:29:23.013Z,1.10
2023-08-06T08:30:23.046Z,1.20
2023-08-06T08:31:22.994Z,1.10
2023-08-06T08:32:22.985Z,0.90
2023-08-06T08:33:22.979Z,1.10
2023-08-06T08:34:22.958Z,1.00
2023-08-06T08:35:22.950Z,1.00
2023-08-06T08:36:22.977Z,1.10
2023-08-06T08:37:22.929Z,1.00
2023-08-06T08:38:22.920Z,0.90
2023-08-06T08:39:22.921Z,0.90
2023-08-06T08:40:22.894Z,1.00
2023-08-06T08:41:22.880Z,1.20
2023-08-06T08:42:22.894Z,1.00
2023-08-06T08:43:22.867Z,1.20
2023-08-06T08:44:22.844Z,1.20
2023-08-06T08:45:22.856Z,1.20
2023-08-06T08:46:22.882Z,0.90
2023-08-06T08:47:22.920Z,1.10
2023-08-06T08:48:22.801Z,1.20
2023-08-06T08:49:22.816Z,1.30
2023-08-06T08:50:22.782Z,1.10
2023-08-06T08:51:22.773Z,0.90
2023-08-06T08:52:22.756Z,1.10
2023-08-06T08:53:22.754Z,1.10
2023-08-06T08:54:22.757Z,1.20
2023-08-06T08:55:22.736Z,0.90
2023-08-06T08:56:22.720Z,1.10
2023-08-06T08:57:22.701Z,0.90
2023-08-06T08:58:22.698Z,1.10
2023-08-06T08:59:22.709Z,1.00
2023-08-06T09:00:22.666Z,1.20
2023-08-06T09:01:22.703Z,1.20
2023-08-06T09:02:22.688Z,1.10
2023-08-06T09:03:22.696Z,1.00
2023-08-06T09:04:22.625Z,0.90
2023-08-06T09:05:22.673Z,1.30
2023-08-06T09:06:29.290Z,0.80
2023-08-06T09:07:22.611Z,1.20
2023-08-06T09:08:22.577Z,1.10
2023-08-06T09:09:22.576Z,1.10
2023-08-06T09:10:22.578Z,1.00
2023-08-06T09:11:22.580Z,0.90
2023-08-06T09:12:22.533Z,1.00
2023-08-06T09:13:22.526Z,0.90
2023-08-06T09:14:22.516Z,0.90
2023-08-06T09:15:24.257Z,0.90
2023-08-06T09:16:22.585Z,1.00
2023-08-06T09:17:22.553Z,0.90
2023-08-06T09:18:22.468Z,1.10
2023-08-06T09:19:22.463Z,0.80
2023-08-06T09:20:22.449Z,0.90
2023-08-06T09:21:22.473Z,0.90
2023-08-06T09:22:22.422Z,1.00
2023-08-06T09:23:22.417Z,1.00
2023-08-06T09:24:22.427Z,0.90
2023-08-06T09:25:22.398Z,0.90
2023-08-06T09:26:22.420Z,0.90
2023-08-06T09:27:22.379Z,0.90
2023-08-06T09:28:22.362Z,0.90
2023-08-06T09:29:22.370Z,1.00
2023-08-06T09:30:22.336Z,1.00
2023-08-06T09:31:22.352Z,1.10
2023-08-06T09:32:22.424Z,0.70
2023-08-06T09:33:22.325Z,0.90
2023-08-06T09:34:22.297Z,1.00
2023-08-06T09:35:22.281Z,0.90
2023-08-06T09:36:22.268Z,1.10
2023-08-06T09:37:22.290Z,0.70
2023-08-06T09:38:22.271Z,0.80
2023-08-06T09:39:22.237Z,0.80
2023-08-06T09:40:22.226Z,0.90
2023-08-06T09:41:22.242Z,1.00
2023-08-06T09:42:22.201Z,0.90
2023-08-06T09:43:22.217Z,0.90
2023-08-06T09:44:22.185Z,0.90
2023-08-06T09:45:22.171Z,0.70
2023-08-06T09:46:22.180Z,1.00
2023-08-06T09:47:22.203Z,1.00
2023-08-06T09:48:22.137Z,1.00
2023-08-06T09:49:23.876Z,1.00
2023-08-06T09:50:22.117Z,1.00
2023-08-06T09:51:22.105Z,1.20
2023-08-06T09:52:22.096Z,0.90
2023-08-06T09:53:22.108Z,0.90
2023-08-06T09:55:23.146Z,1.10
2023-08-06T09:56:22.051Z,0.90
2023-08-06T09:57:22.036Z,1.00
2023-08-06T09:58:22.031Z,1.00
2023-08-06T09:59:22.036Z,1.00
2023-08-06T10:00:22.001Z,1.00
2023-08-06T10:01:22.041Z,0.80
2023-08-06T10:02:22.084Z,1.10
2023-08-06T10:03:22.184Z,0.80
2023-08-06T10:04:25.706Z,0.90
2023-08-06T10:05:21.990Z,1.00
2023-08-06T10:06:21.937Z,0.80
2023-08-06T10:07:21.931Z,0.90
2023-08-06T10:08:21.933Z,1.00
2023-08-06T10:09:21.909Z,0.80
2023-08-06T10:10:21.897Z,0.90
2023-08-06T10:11:21.915Z,1.00
2023-08-06T10:12:21.873Z,0.90
2023-08-06T10:13:21.866Z,0.90
2023-08-06T10:14:21.858Z,0.90
2023-08-06T10:15:21.843Z,0.80
2023-08-06T10:16:21.875Z,0.80
2023-08-06T10:17:21.841Z,0.90
2023-08-06T10:18:21.847Z,1.00
2023-08-06T10:19:21.822Z,1.00
2023-08-06T10:20:21.785Z,0.90
2023-08-06T10:21:21.800Z,1.00
2023-08-06T10:22:21.756Z,0.90
2023-08-06T10:23:21.757Z,1.00
2023-08-06T10:24:21.737Z,0.80
2023-08-06T10:25:21.745Z,0.80
2023-08-06T10:26:21.726Z,0.80
2023-08-06T10:27:21.735Z,0.80
2023-08-06T10:28:21.699Z,0.90
2023-08-06T10:29:21.701Z,0.90
2023-08-06T10:30:21.672Z,1.00
2023-08-06T10:31:21.712Z,1.00
2023-08-06T10:32:21.669Z,0.70
2023-08-06T10:33:21.678Z,0.80
2023-08-06T10:34:21.633Z,0.80
2023-08-06T10:35:21.624Z,0.80
2023-08-06T10:36:21.608Z,1.20
2023-08-06T10:37:21.608Z,0.70
2023-08-06T10:38:21.605Z,0.70
2023-08-06T10:39:31.061Z,0.60
2023-08-06T10:40:21.566Z,0.70
2023-08-06T10:41:21.549Z,0.80
2023-08-06T10:42:21.538Z,0.70
2023-08-06T10:43:21.551Z,0.90
2023-08-06T10:44:23.933Z,0.90
2023-08-06T10:45:21.508Z,0.80
2023-08-06T10:46:21.547Z,0.80
2023-08-06T10:47:21.509Z,1.00
2023-08-06T10:48:21.496Z,0.70
2023-08-06T10:49:21.455Z,0.60
2023-08-06T10:50:21.459Z,0.80
2023-08-06T10:51:21.448Z,0.80
2023-08-06T10:52:21.451Z,0.90
2023-08-06T10:53:21.450Z,0.70
2023-08-06T10:54:21.410Z,0.70
2023-08-06T10:55:21.393Z,0.80
2023-08-06T10:56:21.399Z,0.70
2023-08-06T10:57:21.371Z,0.90
2023-08-06T10:58:21.365Z,0.80
2023-08-06T10:59:21.385Z,1.00
2023-08-06T11:00:21.363Z,0.90
2023-08-06T11:01:21.378Z,0.80
2023-08-06T11:02:21.374Z,0.80
2023-08-06T11:03:21.406Z,1.10
2023-08-06T11:04:21.303Z,0.80
2023-08-06T11:05:21.325Z,1.10
2023-08-06T11:06:21.274Z,0.90
2023-08-06T11:07:22.391Z,0.80
2023-08-06T11:08:21.250Z,0.90
2023-08-06T11:09:21.236Z,0.90
2023-08-06T11:10:21.237Z,1.10
2023-08-06T11:11:21.254Z,1.00
2023-08-06T11:12:21.218Z,0.90
2023-08-06T11:13:21.197Z,1.00
2023-08-06T11:14:21.196Z,0.80
2023-08-06T11:15:21.181Z,1.20
2023-08-06T11:16:21.190Z,0.80
2023-08-06T11:17:21.185Z,0.70
2023-08-06T11:18:21.147Z,0.90
2023-08-06T11:19:21.164Z,0.90
2023-08-06T11:20:21.125Z,0.70
2023-08-06T11:21:21.113Z,1.00
2023-08-06T11:22:21.139Z,0.90
2023-08-06T11:23:21.092Z,0.80
2023-08-06T11:24:21.073Z,1.00
2023-08-06T11:25:21.065Z,0.90
2023-08-06T11:26:21.095Z,0.80
2023-08-06T11:27:21.037Z,0.90
2023-08-06T11:28:21.063Z,0.90
2023-08-06T11:29:21.069Z,0.70
2023-08-06T11:30:21.032Z,0.80
2023-08-06T11:31:21.054Z,0.80
2023-08-06T11:32:21.063Z,0.80
2023-08-06T11:33:20.976Z,0.80
2023-08-06T11:34:20.967Z,1.00
2023-08-06T11:35:20.979Z,0.80
2023-08-06T11:36:20.967Z,0.90
2023-08-06T11:37:20.936Z,0.90
2023-08-06T11:38:20.927Z,0.90
2023-08-06T11:39:20.920Z,1.00
2023-08-06T11:40:20.913Z,1.10
2023-08-06T11:41:20.921Z,1.00
2023-08-06T11:42:20.885Z,1.00
2023-08-06T11:43:20.872Z,1.20
2023-08-06T11:44:20.863Z,1.10
2023-08-06T11:45:20.857Z,1.30
2023-08-06T11:46:20.902Z,0.90
2023-08-06T11:47:20.851Z,1.10
2023-08-06T11:48:20.830Z,0.90
2023-08-06T11:49:20.812Z,1.10
2023-08-06T11:50:20.799Z,1.10
2023-08-06T11:51:20.788Z,1.00
2023-08-06T11:52:20.839Z,0.90
2023-08-06T11:53:20.767Z,1.00
2023-08-06T11:54:20.811Z,1.00
2023-08-06T11:55:20.746Z,1.10
2023-08-06T11:56:20.737Z,0.80
2023-08-06T11:57:20.724Z,0.90
2023-08-06T11:58:20.736Z,1.10
2023-08-06T11:59:20.708Z,1.20
2023-08-06T12:00:20.699Z,1.00
2023-08-06T12:01:20.716Z,1.30
2023-08-06T12:02:20.663Z,1.10
2023-08-06T12:03:20.678Z,1.10
2023-08-06T12:04:20.708Z,0.90
2023-08-06T12:05:20.696Z,0.90
2023-08-06T12:06:20.627Z,0.90
2023-08-06T12:07:20.620Z,1.10
2023-08-06T12:08:20.629Z,0.90
2023-08-06T12:09:20.612Z,0.80
2023-08-06T12:10:20.596Z,1.10
2023-08-06T12:11:20.562Z,1.10
2023-08-06T12:12:20.557Z,1.20
2023-08-06T12:13:20.559Z,0.80
2023-08-06T12:14:20.538Z,1.30
2023-08-06T12:15:20.535Z,1.10
2023-08-06T12:16:20.646Z,1.00
2023-08-06T12:17:20.584Z,0.90
2023-08-06T12:18:20.509Z,1.00
2023-08-06T12:19:20.481Z,1.30
2023-08-06T12:20:20.497Z,1.40
2023-08-06T12:21:20.450Z,1.20
2023-08-06T12:22:21.977Z,0.90
2023-08-06T12:23:20.463Z,1.10
2023-08-06T12:24:20.421Z,1.00
2023-08-06T12:25:20.406Z,1.40
2023-08-06T12:26:20.420Z,1.00
2023-08-06T12:27:20.400Z,1.20
2023-08-06T12:28:22.091Z,1.30
2023-08-06T12:29:20.387Z,1.40
2023-08-06T12:30:20.434Z,1.10
2023-08-06T12:31:20.346Z,1.30
2023-08-06T12:32:20.344Z,1.30
2023-08-06T12:33:20.329Z,1.50
2023-08-06T12:34:23.248Z,1.30
2023-08-06T12:35:20.298Z,1.10
2023-08-06T12:36:20.287Z,1.00
2023-08-06T12:37:20.551Z,0.90
2023-08-06T12:38:20.268Z,1.10
2023-08-06T12:39:20.262Z,0.70
2023-08-06T12:40:35.446Z,0.80
2023-08-06T12:41:20.253Z,0.90
2023-08-06T12:42:20.316Z,0.90
2023-08-06T12:43:20.213Z,0.80
2023-08-06T12:44:20.216Z,0.80
2023-08-06T12:45:20.194Z,0.90
2023-08-06T12:46:20.239Z,1.00
2023-08-06T12:47:20.231Z,0.90
2023-08-06T12:48:20.194Z,0.90
2023-08-06T12:49:20.172Z,0.90
2023-08-06T12:50:20.154Z,0.80
2023-08-06T12:51:20.122Z,1.20
2023-08-06T12:52:20.117Z,1.20
2023-08-06T12:53:20.107Z,1.00
2023-08-06T12:54:20.094Z,1.00
2023-08-06T12:55:20.113Z,1.10
2023-08-06T12:56:20.080Z,1.00
2023-08-06T12:57:20.067Z,1.00
2023-08-06T12:58:20.061Z,0.90
2023-08-06T12:59:20.058Z,1.00
2023-08-06T13:00:20.036Z,0.90
2023-08-06T13:01:20.133Z,1.10
2023-08-06T13:02:20.008Z,1.10
2023-08-06T13:03:20.043Z,1.10
2023-08-06T13:04:22.929Z,1.10
2023-08-06T13:05:19.973Z,1.10
2023-08-06T13:06:19.978Z,1.00
2023-08-06T13:07:19.954Z,1.20
2023-08-06T13:08:19.963Z,0.90
2023-08-06T13:09:19.959Z,1.10
2023-08-06T13:10:19.923Z,0.90
2023-08-06T13:11:19.912Z,1.10
2023-08-06T13:12:19.913Z,0.90
2023-08-06T13:13:19.891Z,1.00
2023-08-06T13:14:19.879Z,1.00
2023-08-06T13:15:19.901Z,0.90
2023-08-06T13:16:19.878Z,1.10
2023-08-06T13:17:19.881Z,1.10
2023-08-06T13:18:19.841Z,0.90
2023-08-06T13:19:19.821Z,0.90